Time,TemperatureF,DewpointF,PressureIn,WindDirection,WindDirectionDegrees,WindSpeedMPH,WindSpeedGustMPH,Humidity,HourlyPrecipIn,Conditions,Clouds,dailyrainin,SoftwareType,DateUTC
2013-05-04 00:01:00,75.0,39.0,29.71,NW,310,0.0,0.0,27,0.00,,,0.00,,2013-05-04 07:01:00,
2013-05-04 00:21:00,75.0,39.0,29.71,NW,311,1.0,1.0,27,0.00,,,0.00,,2013-05-04 07:21:00,
2013-05-04 00:31:00,74.0,40.0,29.70,SSE,153,0.0,0.0,29,0.00,,,0.00,,2013-05-04 07:31:00,
2013-05-04 00:41:00,74.0,40.0,29.70,SSE,153,0.0,0.0,29,0.00,,,0.00,,2013-05-04 07:41:00,
2013-05-04 00:52:00,74.0,40.0,29.70,SSE,152,0.0,1.0,29,0.00,,,0.00,,2013-05-04 07:52:00,
2013-05-04 01:01:00,74.0,40.0,29.70,SSE,153,0.0,0.0,29,0.00,,,0.00,,2013-05-04 08:01:00,
2013-05-04 01:31:00,73.0,39.0,29.68,ESE,114,0.0,1.0,29,0.00,,,0.00,,2013-05-04 08:31:00,
2013-05-04 01:41:00,73.0,39.0,29.68,ESE,114,0.0,1.0,29,0.00,,,0.00,,2013-05-04 08:41:00,
2013-05-04 01:52:00,73.0,39.0,29.68,ESE,115,0.0,0.0,29,0.00,,,0.00,,2013-05-04 08:52:00,
2013-05-04 02:02:00,72.0,39.0,29.67,ESE,116,0.0,0.0,30,0.00,,,0.00,,2013-05-04 09:02:00,
2013-05-04 02:11:00,72.0,39.0,29.67,ESE,116,0.0,0.0,30,0.00,,,0.00,,2013-05-04 09:11:00,
2013-05-04 02:21:00,72.0,41.0,29.67,ESE,115,0.0,0.0,32,0.00,,,0.00,,2013-05-04 09:21:00,
2013-05-04 02:32:00,71.0,40.0,29.67,ESE,115,0.0,0.0,32,0.00,,,0.00,,2013-05-04 09:32:00,
2013-05-04 02:42:00,71.0,40.0,29.67,ESE,115,0.0,0.0,32,0.00,,,0.00,,2013-05-04 09:42:00,
2013-05-04 02:52:00,71.0,40.0,29.66,ESE,115,1.0,2.0,33,0.00,,,0.00,,2013-05-04 09:52:00,
2013-05-04 03:02:00,70.0,41.0,29.66,NE,40,1.0,1.0,35,0.00,,,0.00,,2013-05-04 10:02:00,
2013-05-04 03:32:00,69.0,42.0,29.66,NE,40,0.0,0.0,37,0.00,,,0.00,,2013-05-04 10:32:00,
2013-05-04 03:52:00,69.0,42.0,29.66,NE,40,0.0,0.0,37,0.00,,,0.00,,2013-05-04 10:52:00,
2013-05-04 04:02:00,68.0,42.0,29.65,NE,40,0.0,0.0,39,0.00,,,0.00,,2013-05-04 11:02:00,
2013-05-04 04:32:00,67.0,43.0,29.65,NE,40,0.0,0.0,42,0.00,,,0.00,,2013-05-04 11:32:00,
2013-05-04 04:52:00,66.0,42.0,29.65,NE,40,0.0,0.0,42,0.00,,,0.00,,2013-05-04 11:52:00,
2013-05-04 05:03:00,66.0,43.0,29.65,NE,40,0.0,0.0,44,0.00,,,0.00,,2013-05-04 12:03:00,
2013-05-04 05:23:00,65.0,43.0,29.65,NE,40,0.0,0.0,44,0.00,,,0.00,,2013-05-04 12:23:00,
2013-05-04 05:33:00,64.0,42.0,29.65,NE,39,0.0,0.0,45,0.00,,,0.00,,2013-05-04 12:33:00,
2013-05-04 05:41:00,64.0,42.0,29.65,NE,39,0.0,0.0,45,0.00,,,0.00,,2013-05-04 12:41:00,
2013-05-04 05:51:00,64.0,43.0,29.65,NE,40,0.0,0.0,46,0.00,,,0.00,,2013-05-04 12:51:00,
2013-05-04 06:01:00,64.0,43.0,29.65,NE,40,0.0,0.0,47,0.00,,,0.00,,2013-05-04 13:01:00,
2013-05-04 06:21:00,63.0,43.0,29.66,NE,41,0.0,0.0,48,0.00,,,0.00,,2013-05-04 13:21:00,
2013-05-04 06:32:00,63.0,44.0,29.67,NE,41,0.0,0.0,49,0.00,,,0.00,,2013-05-04 13:32:00,
2013-05-04 06:52:00,63.0,45.0,29.67,NE,40,0.0,0.0,51,0.00,,,0.00,,2013-05-04 13:52:00,
2013-05-04 07:02:00,66.0,46.0,29.67,NE,39,0.0,0.0,49,0.00,,,0.00,,2013-05-04 14:02:00,
2013-05-04 07:21:00,68.0,47.0,29.68,NE,40,0.0,0.0,47,0.00,,,0.00,,2013-05-04 14:21:00,
2013-05-04 07:32:00,73.0,46.0,29.68,SE,135,2.0,2.0,38,0.00,,,0.00,,2013-05-04 14:32:00,
2013-05-04 07:51:00,76.0,41.0,29.68,SE,139,1.0,3.0,28,0.00,,,0.00,,2013-05-04 14:51:00,
2013-05-04 08:01:00,80.0,34.0,29.68,SE,135,3.0,4.0,19,0.00,,,0.00,,2013-05-04 15:01:00,
2013-05-04 08:21:00,80.0,37.0,29.69,ESE,120,5.0,7.0,21,0.00,,,0.00,,2013-05-04 15:21:00,
2013-05-04 08:33:00,81.0,47.0,29.69,South,185,4.0,7.0,30,0.00,,,0.00,,2013-05-04 15:33:00,
2013-05-04 09:03:00,85.0,51.0,29.70,South,181,5.0,7.0,31,0.00,,,0.00,,2013-05-04 16:03:00,
2013-05-04 09:22:00,86.0,51.0,29.70,South,188,5.0,7.0,30,0.00,,,0.00,,2013-05-04 16:22:00,
2013-05-04 09:32:00,88.0,54.0,29.70,South,178,5.0,8.0,31,0.00,,,0.00,,2013-05-04 16:32:00,
2013-05-04 09:52:00,89.0,54.0,29.70,South,179,5.0,7.0,31,0.00,,,0.00,,2013-05-04 16:52:00,
2013-05-04 10:02:00,90.0,53.0,29.70,SSE,162,3.0,6.0,29,0.00,,,0.00,,2013-05-04 17:02:00,
2013-05-04 10:22:00,91.0,53.0,29.70,South,184,4.0,7.0,28,0.00,,,0.00,,2013-05-04 17:22:00,
2013-05-04 10:32:00,93.0,48.0,29.70,SSE,157,3.0,5.0,22,0.00,,,0.00,,2013-05-04 17:32:00,
2013-05-04 10:52:00,93.0,46.0,29.70,SSE,163,2.0,4.0,20,0.00,,,0.00,,2013-05-04 17:52:00,
2013-05-04 11:01:00,93.0,42.0,29.70,South,188,5.0,6.0,17,0.00,,,0.00,,2013-05-04 18:01:00,
2013-05-04 11:21:00,95.0,40.0,29.69,South,179,4.0,5.0,15,0.00,,,0.00,,2013-05-04 18:21:00,
2013-05-04 11:32:00,93.0,40.0,29.69,SSE,149,3.0,4.0,16,0.00,,,0.00,,2013-05-04 18:32:00,
2013-05-04 11:52:00,93.0,38.0,29.68,SW,222,2.0,2.0,15,0.00,,,0.00,,2013-05-04 18:52:00,
2013-05-04 12:01:00,96.0,37.0,29.67,SSW,197,3.0,3.0,13,0.00,,,0.00,,2013-05-04 19:01:00,
2013-05-04 12:21:00,98.0,39.0,29.67,SSW,208,4.0,5.0,13,0.00,,,0.00,,2013-05-04 19:21:00,
2013-05-04 12:31:00,98.0,37.0,29.66,SE,139,2.0,4.0,12,0.00,,,0.00,,2013-05-04 19:31:00,
2013-05-04 12:52:00,98.0,37.0,29.66,SSW,209,5.0,7.0,12,0.00,,,0.00,,2013-05-04 19:52:00,
2013-05-04 13:01:00,100.0,42.0,29.65,SW,217,6.0,9.0,14,0.00,,,0.00,,2013-05-04 20:01:00,
2013-05-04 13:21:00,100.0,40.0,29.65,ENE,74,1.0,2.0,13,0.00,,,0.00,,2013-05-04 20:21:00,
2013-05-04 13:31:00,100.0,40.0,29.64,South,182,4.0,5.0,13,0.00,,,0.00,,2013-05-04 20:31:00,
2013-05-04 13:51:00,99.0,41.0,29.63,WSW,241,3.0,6.0,14,0.00,,,0.00,,2013-05-04 20:51:00,
2013-05-04 14:01:00,101.0,37.0,29.62,South,188,5.0,6.0,11,0.00,,,0.00,,2013-05-04 21:01:00,
2013-05-04 14:21:00,102.0,35.0,29.62,SSW,206,8.0,11.0,10,0.00,,,0.00,,2013-05-04 21:21:00,
2013-05-04 14:33:00,102.0,35.0,29.62,South,173,6.0,8.0,10,0.00,,,0.00,,2013-05-04 21:33:00,
2013-05-04 14:52:00,100.0,36.0,29.61,South,170,8.0,11.0,11,0.00,,,0.00,,2013-05-04 21:52:00,
2013-05-04 15:02:00,101.0,37.0,29.60,SSW,197,7.0,7.0,11,0.00,,,0.00,,2013-05-04 22:02:00,
2013-05-04 15:12:00,101.0,37.0,29.60,SSW,197,7.0,7.0,11,0.00,,,0.00,,2013-05-04 22:12:00,
2013-05-04 15:22:00,101.0,32.0,29.59,SW,223,11.0,15.0,9,0.00,,,0.00,,2013-05-04 22:22:00,
2013-05-04 15:32:00,100.0,25.0,29.59,SW,229,11.0,14.0,7,0.00,,,0.00,,2013-05-04 22:32:00,
2013-05-04 15:42:00,100.0,25.0,29.59,SW,229,11.0,14.0,7,0.00,,,0.00,,2013-05-04 22:42:00,
2013-05-04 15:52:00,100.0,31.0,29.58,SW,220,10.0,14.0,9,0.00,,,0.00,,2013-05-04 22:52:00,
2013-05-04 16:02:00,98.0,27.0,29.58,SSW,200,9.0,14.0,8,0.00,,,0.00,,2013-05-04 23:02:00,
2013-05-04 16:11:00,98.0,27.0,29.58,SSW,200,9.0,14.0,8,0.00,,,0.00,,2013-05-04 23:11:00,
2013-05-04 16:21:00,98.0,30.0,29.57,SW,225,6.0,9.0,9,0.00,,,0.00,,2013-05-04 23:21:00,
2013-05-04 16:32:00,98.0,35.0,29.57,South,176,7.0,12.0,11,0.00,,,0.00,,2013-05-04 23:32:00,
2013-05-04 16:42:00,98.0,35.0,29.57,South,176,7.0,12.0,11,0.00,,,0.00,,2013-05-04 23:42:00,
2013-05-04 16:52:00,97.0,36.0,29.57,South,182,7.0,10.0,12,0.00,,,0.00,,2013-05-04 23:52:00,
2013-05-04 17:01:00,95.0,32.0,29.57,SE,132,10.0,13.0,11,0.00,,,0.00,,2013-05-05 00:01:00,
2013-05-04 17:11:00,95.0,32.0,29.57,SE,132,10.0,13.0,11,0.00,,,0.00,,2013-05-05 00:11:00,
2013-05-04 17:21:00,95.0,32.0,29.57,SSE,158,5.0,9.0,11,0.00,,,0.00,,2013-05-05 00:21:00,
2013-05-04 17:31:00,95.0,30.0,29.57,SSE,149,9.0,11.0,10,0.00,,,0.00,,2013-05-05 00:31:00,
2013-05-04 17:42:00,95.0,30.0,29.57,SSE,149,9.0,11.0,10,0.00,,,0.00,,2013-05-05 00:42:00,
2013-05-04 17:51:00,94.0,29.0,29.57,SSE,148,7.0,11.0,10,0.00,,,0.00,,2013-05-05 00:51:00,
2013-05-04 18:01:00,93.0,28.0,29.57,SE,146,8.0,13.0,10,0.00,,,0.00,,2013-05-05 01:01:00,
2013-05-04 18:11:00,93.0,28.0,29.57,SE,146,8.0,13.0,10,0.00,,,0.00,,2013-05-05 01:11:00,
2013-05-04 18:21:00,93.0,31.0,29.57,SSE,157,6.0,11.0,11,0.00,,,0.00,,2013-05-05 01:21:00,
2013-05-04 18:32:00,91.0,29.0,29.57,SSE,152,6.0,9.0,11,0.00,,,0.00,,2013-05-05 01:32:00,
2013-05-04 18:41:00,91.0,29.0,29.57,SSE,152,6.0,9.0,11,0.00,,,0.00,,2013-05-05 01:41:00,
2013-05-04 18:52:00,91.0,29.0,29.57,SSE,160,7.0,11.0,11,0.00,,,0.00,,2013-05-05 01:52:00,
2013-05-04 19:02:00,89.0,30.0,29.58,SSE,153,6.0,10.0,12,0.00,,,0.00,,2013-05-05 02:02:00,
2013-05-04 19:11:00,89.0,30.0,29.58,SSE,153,6.0,10.0,12,0.00,,,0.00,,2013-05-05 02:11:00,
2013-05-04 19:21:00,88.0,29.0,29.58,SSE,157,7.0,12.0,12,0.00,,,0.00,,2013-05-05 02:21:00,
2013-05-04 19:31:00,86.0,31.0,29.59,SE,145,9.0,16.0,14,0.00,,,0.00,,2013-05-05 02:31:00,
2013-05-04 19:42:00,86.0,31.0,29.59,SE,145,9.0,16.0,14,0.00,,,0.00,,2013-05-05 02:42:00,
2013-05-04 19:51:00,85.0,34.0,29.60,SE,138,8.0,14.0,16,0.00,,,0.00,,2013-05-05 02:51:00,
2013-05-04 20:01:00,84.0,36.0,29.62,South,187,3.0,4.0,18,0.00,,,0.00,,2013-05-05 03:01:00,
2013-05-04 20:21:00,83.0,35.0,29.63,SW,218,1.0,2.0,18,0.00,,,0.00,,2013-05-05 03:21:00,
2013-05-04 20:32:00,82.0,36.0,29.64,SSE,147,1.0,1.0,19,0.00,,,0.00,,2013-05-05 03:32:00,
2013-05-04 20:42:00,82.0,36.0,29.64,SSE,147,1.0,1.0,19,0.00,,,0.00,,2013-05-05 03:42:00,
2013-05-04 20:52:00,82.0,34.0,29.65,SSW,205,1.0,4.0,18,0.00,,,0.00,,2013-05-05 03:52:00,
2013-05-04 21:02:00,81.0,37.0,29.66,SE,143,3.0,4.0,21,0.00,,,0.00,,2013-05-05 04:02:00,
2013-05-04 21:12:00,81.0,37.0,29.66,SE,143,3.0,4.0,21,0.00,,,0.00,,2013-05-05 04:12:00,
2013-05-04 21:22:00,81.0,39.0,29.67,SW,233,3.0,5.0,22,0.00,,,0.00,,2013-05-05 04:22:00,
2013-05-04 21:32:00,80.0,41.0,29.68,SSE,163,1.0,4.0,25,0.00,,,0.00,,2013-05-05 04:32:00,
2013-05-04 21:43:00,80.0,41.0,29.68,SSE,163,1.0,4.0,25,0.00,,,0.00,,2013-05-05 04:43:00,
2013-05-04 21:52:00,79.0,41.0,29.68,SSE,162,0.0,2.0,26,0.00,,,0.00,,2013-05-05 04:52:00,
2013-05-04 22:02:00,78.0,40.0,29.68,WSW,241,1.0,2.0,26,0.00,,,0.00,,2013-05-05 05:02:00,
2013-05-04 22:12:00,78.0,40.0,29.68,WSW,241,1.0,2.0,26,0.00,,,0.00,,2013-05-05 05:12:00,
2013-05-04 22:21:00,78.0,40.0,29.68,SSW,211,1.0,2.0,26,0.00,,,0.00,,2013-05-05 05:21:00,
2013-05-04 22:31:00,78.0,32.0,29.68,SSW,199,0.0,3.0,19,0.00,,,0.00,,2013-05-05 05:31:00,
2013-05-04 22:42:00,78.0,32.0,29.68,SSW,199,0.0,3.0,19,0.00,,,0.00,,2013-05-05 05:42:00,
2013-05-04 22:51:00,77.0,30.0,29.68,North,354,0.0,0.0,18,0.00,,,0.00,,2013-05-05 05:51:00,
2013-05-04 23:01:00,77.0,29.0,29.69,West,259,1.0,2.0,17,0.00,,,0.00,,2013-05-05 06:01:00,
2013-05-04 23:11:00,77.0,29.0,29.69,West,259,1.0,2.0,17,0.00,,,0.00,,2013-05-05 06:11:00,
2013-05-04 23:21:00,76.0,27.0,29.69,WNW,291,1.0,2.0,16,0.00,,,0.00,,2013-05-05 06:21:00,
2013-05-04 23:31:00,76.0,27.0,29.69,SW,222,3.0,4.0,16,0.00,,,0.00,,2013-05-05 06:31:00,
2013-05-04 23:51:00,75.0,26.0,29.69,SW,219,4.0,4.0,16,0.00,,,0.00,,2013-05-05 06:51:00,